createdAt,value
2017-09-16T00:00:54.809Z,8.03
2017-09-16T00:01:49.852Z,8.02
2017-09-16T00:02:49.810Z,7.99
2017-09-16T00:03:49.892Z,7.95
2017-09-16T00:04:56.105Z,7.98
2017-09-16T00:05:50.893Z,7.94
2017-09-16T00:06:50.956Z,7.91
2017-09-16T00:07:46.086Z,7.88
2017-09-16T00:08:46.018Z,7.88
2017-09-16T00:09:46.124Z,7.92
2017-09-16T00:10:52.032Z,7.93
2017-09-16T00:11:47.082Z,7.98
2017-09-16T00:12:47.083Z,7.94
2017-09-16T00:13:42.210Z,7.92
2017-09-16T00:14:37.167Z,7.92
2017-09-16T00:15:37.262Z,7.91
2017-09-16T00:16:32.295Z,7.88
2017-09-16T00:17:27.239Z,7.83
2017-09-16T00:18:28.306Z,7.85
2017-09-16T00:19:28.363Z,7.82
2017-09-16T00:20:28.351Z,7.84
2017-09-16T00:21:28.392Z,7.83
2017-09-16T00:22:29.465Z,7.80
2017-09-16T00:23:30.414Z,7.80
2017-09-16T00:24:24.710Z,7.82
2017-09-16T00:25:24.450Z,7.86
2017-09-16T00:26:19.511Z,7.88
2017-09-16T00:27:14.575Z,7.89
2017-09-16T00:28:14.553Z,7.87
2017-09-16T00:29:09.535Z,7.82
2017-09-16T00:30:04.652Z,7.86
2017-09-16T00:31:04.688Z,7.84
2017-09-16T00:31:59.672Z,7.86
2017-09-16T00:32:54.743Z,7.90
2017-09-16T00:33:55.884Z,7.86
2017-09-16T00:34:55.737Z,7.85
2017-09-16T00:35:55.761Z,7.84
2017-09-16T00:36:55.781Z,7.80
2017-09-16T00:37:57.122Z,7.81
2017-09-16T00:38:57.910Z,7.78
2017-09-16T00:39:57.908Z,7.78
2017-09-16T00:41:04.946Z,7.78
2017-09-16T00:42:04.984Z,7.72
2017-09-16T00:43:04.908Z,7.69
2017-09-16T00:43:59.294Z,7.66
2017-09-16T00:44:59.063Z,7.65
2017-09-16T00:45:54.089Z,7.66
2017-09-16T00:46:49.103Z,7.74
2017-09-16T00:47:50.095Z,7.73
2017-09-16T00:48:50.084Z,7.68
2017-09-16T00:49:50.304Z,7.66
2017-09-16T00:50:45.208Z,7.66
2017-09-16T00:51:39.246Z,7.65
2017-09-16T00:52:39.296Z,7.62
2017-09-16T00:53:34.329Z,7.60
2017-09-16T00:54:34.361Z,7.60
2017-09-16T00:55:28.401Z,7.60
2017-09-16T00:56:28.356Z,7.62
2017-09-16T00:57:23.394Z,7.62
2017-09-16T00:58:18.483Z,7.64
2017-09-16T00:59:18.669Z,7.64
2017-09-16T01:00:13.507Z,7.68
2017-09-16T01:01:08.575Z,7.68
2017-09-16T01:02:09.531Z,7.70
2017-09-16T01:03:09.539Z,7.75
2017-09-16T01:04:09.632Z,7.72
2017-09-16T01:05:09.602Z,7.78
2017-09-16T01:05:58.720Z,7.81
2017-09-16T01:06:46.699Z,7.79
2017-09-16T01:07:34.702Z,7.76
2017-09-16T01:08:28.783Z,7.76
2017-09-16T01:09:22.830Z,7.73
2017-09-16T01:10:16.818Z,7.75
2017-09-16T01:11:11.864Z,7.82
2017-09-16T01:12:05.913Z,7.84
2017-09-16T01:12:59.882Z,7.88
2017-09-16T01:13:53.907Z,7.83
2017-09-16T01:14:42.010Z,7.84
2017-09-16T01:15:36.002Z,7.84
2017-09-16T01:16:24.196Z,7.84
2017-09-16T01:17:18.111Z,7.88
2017-09-16T01:18:07.116Z,7.84
2017-09-16T01:18:55.176Z,7.79
2017-09-16T01:19:44.197Z,7.78
2017-09-16T01:20:32.228Z,7.78
2017-09-16T01:21:20.225Z,7.72
2017-09-16T01:22:09.281Z,7.70
2017-09-16T01:22:57.404Z,7.70
2017-09-16T01:23:46.335Z,7.66
2017-09-16T01:24:35.457Z,7.72
2017-09-16T01:25:24.461Z,7.70
2017-09-16T01:26:18.498Z,7.72
2017-09-16T01:27:07.534Z,7.70
2017-09-16T01:27:55.581Z,7.68
2017-09-16T01:28:43.615Z,7.70
2017-09-16T01:29:32.658Z,7.70
2017-09-16T01:30:21.755Z,7.72
2017-09-16T01:31:21.763Z,7.72
2017-09-16T01:32:16.741Z,7.68
2017-09-16T01:33:11.877Z,7.73
2017-09-16T01:34:13.016Z,7.73
2017-09-16T01:35:12.896Z,7.76
2017-09-16T01:36:08.036Z,7.73
2017-09-16T01:37:07.974Z,7.75
2017-09-16T01:38:07.911Z,7.75
2017-09-16T01:39:14.035Z,7.70
2017-09-16T01:40:08.981Z,7.72
2017-09-16T01:41:08.969Z,7.70
2017-09-16T01:42:04.004Z,7.72
2017-09-16T01:42:59.023Z,7.72
2017-09-16T01:44:00.131Z,7.69
2017-09-16T01:45:00.119Z,7.68
2017-09-16T01:46:00.103Z,7.64
2017-09-16T01:46:55.168Z,7.65
2017-09-16T01:47:49.197Z,7.62
2017-09-16T01:48:49.214Z,7.60
2017-09-16T01:49:44.224Z,7.58
2017-09-16T01:50:44.232Z,7.57
2017-09-16T01:51:44.379Z,7.53
2017-09-16T01:52:44.321Z,7.52
2017-09-16T01:53:38.346Z,7.50
2017-09-16T01:54:33.325Z,7.56
2017-09-16T01:55:27.446Z,7.57
2017-09-16T01:56:15.473Z,7.55
2017-09-16T01:57:10.529Z,7.52
2017-09-16T01:58:04.492Z,7.54
2017-09-16T01:58:58.542Z,7.48
2017-09-16T01:59:46.645Z,7.48
2017-09-16T02:00:41.665Z,7.47
2017-09-16T02:01:36.671Z,7.48
2017-09-16T02:02:31.737Z,7.48
2017-09-16T02:03:25.726Z,7.48
2017-09-16T02:04:13.701Z,7.54
2017-09-16T02:05:07.758Z,7.58
2017-09-16T02:05:56.105Z,7.56
2017-09-16T02:06:44.862Z,7.51
2017-09-16T02:07:32.929Z,7.52
2017-09-16T02:08:20.907Z,7.53
2017-09-16T02:09:10.122Z,7.50
2017-09-16T02:10:05.080Z,7.50
2017-09-16T02:10:59.047Z,7.50
2017-09-16T02:11:59.140Z,7.54
2017-09-16T02:12:54.108Z,7.56
2017-09-16T02:14:00.156Z,7.48
2017-09-16T02:14:55.148Z,7.48
2017-09-16T02:15:49.181Z,7.50
2017-09-16T02:16:49.162Z,7.53
2017-09-16T02:17:49.383Z,7.60
2017-09-16T02:18:43.220Z,7.58
2017-09-16T02:19:43.277Z,7.68
2017-09-16T02:20:37.308Z,7.64
2017-09-16T02:21:31.369Z,7.62
2017-09-16T02:22:25.335Z,7.62
2017-09-16T02:23:19.439Z,7.62
2017-09-16T02:24:13.456Z,7.61
2017-09-16T02:25:07.458Z,7.59
2017-09-16T02:25:56.540Z,7.56
2017-09-16T02:26:51.541Z,7.57
2017-09-16T02:27:46.710Z,7.60
2017-09-16T02:28:47.597Z,7.66
2017-09-16T02:29:47.589Z,7.64
2017-09-16T02:30:47.683Z,7.63
2017-09-16T02:31:36.699Z,7.67
2017-09-16T02:32:25.697Z,7.64
2017-09-16T02:33:14.727Z,7.65
2017-09-16T02:34:02.831Z,7.63
2017-09-16T02:34:51.933Z,7.62
2017-09-16T02:35:39.869Z,7.58
2017-09-16T02:36:27.943Z,7.57
2017-09-16T02:37:21.929Z,7.60
2017-09-16T02:38:15.954Z,7.64
2017-09-16T02:39:04.040Z,7.62
2017-09-16T02:39:53.068Z,7.62
2017-09-16T02:40:41.075Z,7.56
2017-09-16T02:41:29.134Z,7.54
2017-09-16T02:42:23.163Z,7.60
2017-09-16T02:43:23.156Z,7.64
2017-09-16T02:44:23.235Z,7.60
2017-09-16T02:45:23.250Z,7.62
2017-09-16T02:46:29.259Z,7.58
2017-09-16T02:47:24.379Z,7.64
2017-09-16T02:48:24.333Z,7.64
2017-09-16T02:49:18.315Z,7.61
2017-09-16T02:50:18.697Z,7.60
2017-09-16T02:51:13.427Z,7.58
2017-09-16T02:52:08.422Z,7.53
2017-09-16T02:53:08.471Z,7.50
2017-09-16T02:54:03.563Z,7.46
2017-09-16T02:54:58.579Z,7.52
2017-09-16T02:55:59.569Z,7.48
2017-09-16T02:56:59.545Z,7.42
2017-09-16T02:57:54.867Z,7.41
2017-09-16T02:58:54.770Z,7.40
2017-09-16T02:59:48.628Z,7.52
2017-09-16T03:00:48.709Z,7.55
2017-09-16T03:01:43.681Z,7.58
2017-09-16T03:02:38.929Z,7.60
2017-09-16T03:03:38.905Z,7.74
2017-09-16T03:04:33.789Z,7.77
2017-09-16T03:05:28.840Z,7.82
2017-09-16T03:06:29.859Z,7.84
2017-09-16T03:07:29.887Z,7.84
2017-09-16T03:08:24.944Z,7.84
2017-09-16T03:09:19.936Z,7.86
2017-09-16T03:10:19.917Z,7.98
2017-09-16T03:11:15.034Z,8.06
2017-09-16T03:12:15.022Z,8.08
2017-09-16T03:13:15.125Z,8.12
2017-09-16T03:14:04.095Z,8.14
2017-09-16T03:15:05.101Z,8.22
2017-09-16T03:15:59.115Z,8.24
2017-09-16T03:16:59.159Z,8.28
2017-09-16T03:17:53.481Z,8.25
2017-09-16T03:18:47.305Z,8.28
2017-09-16T03:19:41.312Z,8.30
2017-09-16T03:20:35.299Z,8.36
2017-09-16T03:21:29.358Z,8.38
2017-09-16T03:22:18.419Z,8.39
2017-09-16T03:23:13.418Z,8.40
2017-09-16T03:24:02.567Z,8.38
2017-09-16T03:24:51.423Z,8.40
2017-09-16T03:25:51.559Z,8.40
2017-09-16T03:26:39.545Z,8.45
2017-09-16T03:27:39.534Z,8.44
2017-09-16T03:28:33.599Z,8.46
2017-09-16T03:29:22.607Z,8.47
2017-09-16T03:30:16.768Z,8.46
2017-09-16T03:31:05.707Z,8.50
2017-09-16T03:32:00.717Z,8.56
2017-09-16T03:32:54.764Z,8.60
2017-09-16T03:33:49.943Z,8.58
2017-09-16T03:34:49.886Z,8.62
2017-09-16T03:35:49.856Z,8.61
2017-09-16T03:36:43.917Z,8.62
2017-09-16T03:37:43.930Z,8.62
2017-09-16T03:38:38.056Z,8.64
2017-09-16T03:39:37.916Z,8.66
2017-09-16T03:40:32.047Z,8.66
2017-09-16T03:41:27.025Z,8.68
2017-09-16T03:42:16.120Z,8.66
2017-09-16T03:43:10.133Z,8.70
2017-09-16T03:44:05.226Z,8.74
2017-09-16T03:45:00.181Z,8.81
2017-09-16T03:45:49.220Z,8.82
2017-09-16T03:46:43.216Z,8.82
2017-09-16T03:47:37.232Z,8.84
2017-09-16T03:48:37.281Z,8.83
2017-09-16T03:49:32.478Z,8.82
2017-09-16T03:50:27.329Z,8.84
2017-09-16T03:51:27.428Z,8.85
2017-09-16T03:52:22.436Z,8.88
2017-09-16T03:53:17.492Z,8.90
2017-09-16T03:54:05.497Z,8.86
2017-09-16T03:54:53.519Z,8.89
2017-09-16T03:55:54.556Z,8.90
2017-09-16T03:56:55.661Z,8.89
2017-09-16T03:57:49.616Z,8.89
2017-09-16T03:58:43.798Z,8.90
2017-09-16T03:59:38.671Z,8.91
2017-09-16T04:00:32.755Z,8.90
2017-09-16T04:01:21.757Z,8.90
2017-09-16T04:02:16.853Z,8.89
2017-09-16T04:03:10.836Z,8.89
2017-09-16T04:03:58.862Z,8.89
2017-09-16T04:04:53.905Z,8.92
2017-09-16T04:05:47.913Z,8.94
2017-09-16T04:06:41.922Z,8.94
2017-09-16T04:07:30.160Z,8.95
2017-09-16T04:08:19.016Z,8.96
2017-09-16T04:09:13.077Z,8.94
2017-09-16T04:10:02.074Z,8.98
2017-09-16T04:10:51.125Z,9.00
2017-09-16T04:11:45.183Z,9.00
2017-09-16T04:12:45.220Z,8.99
2017-09-16T04:13:34.190Z,9.00
2017-09-16T04:14:23.236Z,8.98
2017-09-16T04:15:12.349Z,9.00
2017-09-16T04:16:00.339Z,9.02
2017-09-16T04:16:54.443Z,9.00
2017-09-16T04:17:43.465Z,9.00
2017-09-16T04:18:43.443Z,9.02
2017-09-16T04:19:43.469Z,9.03
2017-09-16T04:20:32.502Z,9.02
2017-09-16T04:21:26.594Z,9.04
2017-09-16T04:22:26.567Z,9.06
2017-09-16T04:23:20.603Z,9.06
2017-09-16T04:24:14.955Z,9.03
2017-09-16T04:25:08.672Z,9.05
2017-09-16T04:26:03.725Z,9.04
2017-09-16T04:27:03.693Z,9.04
2017-09-16T04:28:03.748Z,9.04
2017-09-16T04:28:57.796Z,9.01
2017-09-16T04:29:57.908Z,9.06
2017-09-16T04:30:51.847Z,9.04
2017-09-16T04:31:57.941Z,9.03
2017-09-16T04:32:46.075Z,9.02
2017-09-16T04:33:34.939Z,9.02
2017-09-16T04:34:24.078Z,8.98
2017-09-16T04:35:24.042Z,9.02
2017-09-16T04:36:18.090Z,9.02
2017-09-16T04:37:12.050Z,9.03
2017-09-16T04:38:00.156Z,9.00
2017-09-16T04:38:48.213Z,8.98
2017-09-16T04:39:49.241Z,9.01
2017-09-16T04:40:49.213Z,9.03
2017-09-16T04:41:44.272Z,9.04
2017-09-16T04:42:44.340Z,9.06
2017-09-16T04:43:38.339Z,9.04
2017-09-16T04:44:32.348Z,9.04
2017-09-16T04:45:20.370Z,9.07
2017-09-16T04:46:09.430Z,9.07
2017-09-16T04:47:04.544Z,9.07
2017-09-16T04:47:58.521Z,9.08
2017-09-16T04:48:58.529Z,9.08
2017-09-16T04:49:53.530Z,9.10
2017-09-16T04:50:53.593Z,9.07
2017-09-16T04:51:53.693Z,9.10
2017-09-16T04:52:53.652Z,9.08
2017-09-16T04:53:47.953Z,9.06
2017-09-16T04:54:47.759Z,9.09
2017-09-16T04:55:42.784Z,9.12
2017-09-16T04:56:42.713Z,9.12
2017-09-16T04:57:42.849Z,9.11
2017-09-16T04:58:42.812Z,9.13
2017-09-16T04:59:36.879Z,9.14
2017-09-16T05:00:36.861Z,9.12
2017-09-16T05:01:31.954Z,9.14
2017-09-16T05:02:31.939Z,9.16
2017-09-16T05:03:26.146Z,9.20
2017-09-16T05:04:26.086Z,9.20
2017-09-16T05:05:20.079Z,9.21
2017-09-16T05:06:20.991Z,9.24
2017-09-16T05:07:22.137Z,9.20
2017-09-16T05:08:16.150Z,9.22
2017-09-16T05:09:04.108Z,9.19
2017-09-16T05:09:53.207Z,9.22
2017-09-16T05:10:41.306Z,9.22
2017-09-16T05:11:29.272Z,9.22
2017-09-16T05:12:23.331Z,9.24
2017-09-16T05:13:12.365Z,9.22
2017-09-16T05:14:06.558Z,9.22
2017-09-16T05:15:01.393Z,9.24
2017-09-16T05:15:56.452Z,9.28
2017-09-16T05:16:51.585Z,9.31
2017-09-16T05:17:45.518Z,9.28
2017-09-16T05:18:39.494Z,9.32
2017-09-16T05:19:27.649Z,9.30
2017-09-16T05:20:16.660Z,9.26
2017-09-16T05:21:05.666Z,9.26
2017-09-16T05:22:05.740Z,9.34
2017-09-16T05:22:54.739Z,9.30
2017-09-16T05:23:50.209Z,9.29
2017-09-16T05:24:49.849Z,9.34
2017-09-16T05:25:43.856Z,9.32
2017-09-16T05:26:37.916Z,9.30
2017-09-16T05:27:26.037Z,9.34
2017-09-16T05:28:19.962Z,9.34
2017-09-16T05:29:09.026Z,9.36
2017-09-16T05:30:04.342Z,9.39
2017-09-16T05:30:58.054Z,9.32
2017-09-16T05:31:58.117Z,9.37
2017-09-16T05:32:53.137Z,9.42
2017-09-16T05:33:53.126Z,9.42
2017-09-16T05:34:48.144Z,9.39
2017-09-16T05:35:43.352Z,9.38
2017-09-16T05:36:31.287Z,9.34
2017-09-16T05:37:19.346Z,9.42
2017-09-16T05:38:07.336Z,9.39
2017-09-16T05:38:56.398Z,9.35
2017-09-16T05:39:50.447Z,9.36
2017-09-16T05:40:50.518Z,9.40
2017-09-16T05:41:45.469Z,9.38
2017-09-16T05:42:40.560Z,9.43
2017-09-16T05:43:29.559Z,9.48
2017-09-16T05:44:23.641Z,9.46
2017-09-16T05:45:18.622Z,9.50
2017-09-16T05:46:06.696Z,9.52
2017-09-16T05:47:01.645Z,9.53
2017-09-16T05:48:02.732Z,9.52
2017-09-16T05:49:02.786Z,9.52
2017-09-16T05:49:56.827Z,9.51
2017-09-16T05:50:45.846Z,9.53
2017-09-16T05:51:39.899Z,9.55
2017-09-16T05:52:27.915Z,9.59
2017-09-16T05:53:22.002Z,9.55
2017-09-16T05:54:22.978Z,9.56
2017-09-16T05:55:23.978Z,9.54
2017-09-16T05:56:24.055Z,9.52
2017-09-16T05:57:19.046Z,9.56
2017-09-16T05:58:13.131Z,9.58
2017-09-16T05:59:07.128Z,9.58
2017-09-16T05:59:55.167Z,9.58
2017-09-16T06:00:43.296Z,9.60
2017-09-16T06:01:38.224Z,9.63
2017-09-16T06:02:32.338Z,9.71
2017-09-16T06:03:38.332Z,9.68
2017-09-16T06:04:32.388Z,9.69
2017-09-16T06:05:33.322Z,9.65
2017-09-16T06:06:22.396Z,9.70
2017-09-16T06:07:10.446Z,9.73
2017-09-16T06:08:05.514Z,9.78
2017-09-16T06:09:05.554Z,9.76
2017-09-16T06:09:59.560Z,9.81
2017-09-16T06:10:48.573Z,9.82
2017-09-16T06:11:42.689Z,9.84
2017-09-16T06:12:37.628Z,9.87
2017-09-16T06:13:37.687Z,9.76
2017-09-16T06:14:31.789Z,9.81
2017-09-16T06:15:25.735Z,9.81
2017-09-16T06:16:25.752Z,9.81
2017-09-16T06:17:26.842Z,9.84
2017-09-16T06:18:21.861Z,9.84
2017-09-16T06:19:10.940Z,9.86
2017-09-16T06:20:10.916Z,9.88
2017-09-16T06:21:10.967Z,9.82
2017-09-16T06:22:05.968Z,9.87
2017-09-16T06:23:06.040Z,9.88
2017-09-16T06:24:00.082Z,9.88
2017-09-16T06:25:01.146Z,9.92
2017-09-16T06:26:02.124Z,9.92
2017-09-16T06:27:02.143Z,9.95
2017-09-16T06:27:57.198Z,9.94
2017-09-16T06:28:45.214Z,9.99
2017-09-16T06:29:45.230Z,9.98
2017-09-16T06:30:40.320Z,9.97
2017-09-16T06:31:40.397Z,9.87
2017-09-16T06:32:40.279Z,9.90
2017-09-16T06:33:34.415Z,9.91
2017-09-16T06:34:29.402Z,10.03
2017-09-16T06:35:23.415Z,9.96
2017-09-16T06:36:18.629Z,9.94
2017-09-16T06:37:12.581Z,9.97
2017-09-16T06:38:01.528Z,10.02
2017-09-16T06:38:55.620Z,10.00
2017-09-16T06:39:55.636Z,10.02
2017-09-16T06:40:55.615Z,10.04
2017-09-16T06:41:49.985Z,9.96
2017-09-16T06:42:43.777Z,10.08
2017-09-16T06:43:37.778Z,10.03
2017-09-16T06:44:26.877Z,10.10
2017-09-16T06:45:21.886Z,10.14
2017-09-16T06:46:16.866Z,10.17
2017-09-16T06:47:10.904Z,10.18
2017-09-16T06:47:59.950Z,10.25
2017-09-16T06:49:00.105Z,10.29
2017-09-16T06:49:55.054Z,10.28
2017-09-16T06:50:49.050Z,10.23
2017-09-16T06:51:43.128Z,10.19
2017-09-16T06:52:37.189Z,10.05
2017-09-16T06:53:32.348Z,10.06
2017-09-16T06:54:26.271Z,10.06
2017-09-16T06:55:21.289Z,10.10
2017-09-16T06:56:16.256Z,10.05
2017-09-16T06:57:16.304Z,10.04
2017-09-16T06:58:10.437Z,10.06
2017-09-16T06:59:04.365Z,10.00
2017-09-16T06:59:53.415Z,10.07
2017-09-16T07:00:41.481Z,10.18
2017-09-16T07:01:29.521Z,10.60
2017-09-16T07:02:29.559Z,11.12
2017-09-16T07:03:18.604Z,11.58
2017-09-16T07:04:18.608Z,12.10
2017-09-16T07:05:07.668Z,12.16
2017-09-16T07:06:02.784Z,12.61
2017-09-16T07:06:57.798Z,12.52
2017-09-16T07:07:46.812Z,12.68
2017-09-16T07:08:40.836Z,12.44
2017-09-16T07:09:35.890Z,12.38
2017-09-16T07:10:30.977Z,12.11
2017-09-16T07:11:26.133Z,12.33
2017-09-16T07:12:20.006Z,12.40
2017-09-16T07:13:21.137Z,12.63
2017-09-16T07:14:10.045Z,13.15
2017-09-16T07:14:58.098Z,13.39
2017-09-16T07:15:46.152Z,13.82
2017-09-16T07:16:47.332Z,13.88
2017-09-16T07:17:41.390Z,13.23
2017-09-16T07:18:35.224Z,13.14
2017-09-16T07:19:30.344Z,12.97
2017-09-16T07:20:18.380Z,12.96
2017-09-16T07:21:13.597Z,12.88
2017-09-16T07:22:08.636Z,13.12
2017-09-16T07:23:02.480Z,13.00
2017-09-16T07:23:57.534Z,13.06
2017-09-16T07:24:51.611Z,13.18
2017-09-16T07:25:45.837Z,13.38
2017-09-16T07:26:45.735Z,13.72
2017-09-16T07:27:34.757Z,13.68
2017-09-16T07:28:34.778Z,13.73
2017-09-16T07:29:29.815Z,13.58
2017-09-16T07:30:23.841Z,13.82
2017-09-16T07:31:18.862Z,13.88
2017-09-16T07:32:18.964Z,13.95
2017-09-16T07:33:08.009Z,13.97
2017-09-16T07:34:02.118Z,14.44
2017-09-16T07:34:56.046Z,14.49
2017-09-16T07:35:51.200Z,14.64
2017-09-16T07:36:40.197Z,14.68
2017-09-16T07:37:34.184Z,14.54
2017-09-16T07:38:34.407Z,14.56
2017-09-16T07:39:28.469Z,14.67
2017-09-16T07:40:23.310Z,14.90
2017-09-16T07:41:23.400Z,15.14
2017-09-16T07:42:12.652Z,15.34
2017-09-16T07:43:18.437Z,15.39
2017-09-16T07:44:07.585Z,15.19
2017-09-16T07:45:01.563Z,15.28
2017-09-16T07:46:01.577Z,15.26
2017-09-16T07:46:56.737Z,15.44
2017-09-16T07:47:50.683Z,15.55
2017-09-16T07:48:45.769Z,15.37
2017-09-16T07:49:39.804Z,15.66
2017-09-16T07:50:33.842Z,15.92
2017-09-16T07:51:28.905Z,16.56
2017-09-16T07:52:28.922Z,16.63
2017-09-16T07:53:23.973Z,17.14
2017-09-16T07:54:13.074Z,17.33
2017-09-16T07:55:14.216Z,16.81
2017-09-16T07:56:02.171Z,16.76
2017-09-16T07:56:50.287Z,16.03
2017-09-16T07:57:45.618Z,16.28
2017-09-16T07:58:40.419Z,17.28
2017-09-16T07:59:34.477Z,15.57
2017-09-16T08:00:28.602Z,14.99
2017-09-16T08:01:23.562Z,14.10
2017-09-16T08:02:17.582Z,13.89
2017-09-16T08:03:06.742Z,13.68
2017-09-16T08:04:00.758Z,13.36
2017-09-16T08:04:55.820Z,13.30
2017-09-16T08:05:49.865Z,13.14
2017-09-16T08:06:43.908Z,13.22
2017-09-16T08:07:37.954Z,13.14
2017-09-16T08:08:32.062Z,13.11
2017-09-16T08:09:33.032Z,13.12
2017-09-16T08:10:33.136Z,13.28
2017-09-16T08:11:33.111Z,13.08
2017-09-16T08:12:33.307Z,13.67
2017-09-16T08:13:22.277Z,14.00
2017-09-16T08:14:22.308Z,14.06
2017-09-16T08:15:22.180Z,13.73
2017-09-16T08:16:16.417Z,13.46
2017-09-16T08:17:16.269Z,13.96
2017-09-16T08:18:10.427Z,13.51
2017-09-16T08:19:10.366Z,14.13
2017-09-16T08:20:04.588Z,14.47
2017-09-16T08:20:59.625Z,13.78
2017-09-16T08:21:54.494Z,14.74
2017-09-16T08:22:49.558Z,14.47
2017-09-16T08:23:44.899Z,15.07
2017-09-16T08:24:38.604Z,16.03
2017-09-16T08:25:33.775Z,16.30
2017-09-16T08:26:22.724Z,17.83
2017-09-16T08:27:16.867Z,18.50
2017-09-16T08:28:04.974Z,18.56
2017-09-16T08:28:59.212Z,18.69
2017-09-16T08:29:53.174Z,18.76
2017-09-16T08:30:48.242Z,18.96
2017-09-16T08:31:43.310Z,19.05
2017-09-16T08:32:37.407Z,18.66
2017-09-16T08:33:31.350Z,18.52
2017-09-16T08:34:32.474Z,17.90
2017-09-16T08:35:32.550Z,17.55
2017-09-16T08:36:27.731Z,17.52
2017-09-16T08:37:22.493Z,17.18
2017-09-16T08:38:11.729Z,16.97
2017-09-16T08:39:11.515Z,16.66
2017-09-16T08:40:00.575Z,16.54
2017-09-16T08:40:55.867Z,16.40
2017-09-16T08:41:55.939Z,16.87
2017-09-16T08:42:50.968Z,17.77
2017-09-16T08:43:45.001Z,18.02
2017-09-16T08:44:39.956Z,17.86
2017-09-16T08:45:34.036Z,17.56
2017-09-16T08:46:28.162Z,17.88
2017-09-16T08:47:22.178Z,18.11
2017-09-16T08:48:16.187Z,17.92
2017-09-16T08:49:10.322Z,17.97
2017-09-16T08:49:59.110Z,17.80
2017-09-16T08:50:53.353Z,17.65
2017-09-16T08:51:47.268Z,17.38
2017-09-16T08:52:41.559Z,16.65
2017-09-16T08:53:35.410Z,16.00
2017-09-16T08:54:24.564Z,15.65
2017-09-16T08:55:18.576Z,15.82
2017-09-16T08:56:13.564Z,15.68
2017-09-16T08:57:02.692Z,15.25
2017-09-16T08:57:56.870Z,14.94
2017-09-16T08:58:56.959Z,15.16
2017-09-16T08:59:50.665Z,15.46
2017-09-16T09:00:51.759Z,16.24
2017-09-16T09:01:46.092Z,15.99
2017-09-16T09:02:34.838Z,15.44
2017-09-16T09:03:24.027Z,15.08
2017-09-16T09:04:18.944Z,14.83
2017-09-16T09:05:19.044Z,14.43
2017-09-16T09:06:14.268Z,13.90
2017-09-16T09:07:08.249Z,13.51
2017-09-16T09:08:02.474Z,13.42
2017-09-16T09:08:57.461Z,13.34
2017-09-16T09:09:51.444Z,13.58
2017-09-16T09:10:46.512Z,12.78
2017-09-16T09:11:46.434Z,12.80
2017-09-16T09:12:41.376Z,12.78
2017-09-16T09:13:29.590Z,12.52
2017-09-16T09:14:29.525Z,12.56
2017-09-16T09:15:24.769Z,12.30
2017-09-16T09:16:18.596Z,12.64
2017-09-16T09:17:06.666Z,12.56
2017-09-16T09:18:00.745Z,12.82
2017-09-16T09:18:56.181Z,13.55
2017-09-16T09:19:55.826Z,13.20
2017-09-16T09:20:44.827Z,13.58
2017-09-16T09:21:33.890Z,13.18
2017-09-16T09:22:23.116Z,13.06
2017-09-16T09:23:16.987Z,12.73
2017-09-16T09:24:12.025Z,12.92
2017-09-16T09:25:07.180Z,12.62
2017-09-16T09:26:07.093Z,12.24
2017-09-16T09:27:02.260Z,11.90
2017-09-16T09:27:51.468Z,11.80
2017-09-16T09:28:51.316Z,12.02
2017-09-16T09:29:46.534Z,11.89
2017-09-16T09:30:35.393Z,11.91
2017-09-16T09:31:30.617Z,11.72
2017-09-16T09:32:19.628Z,11.96
2017-09-16T09:33:08.629Z,12.72
2017-09-16T09:33:57.834Z,13.24
2017-09-16T09:34:51.615Z,13.80
2017-09-16T09:35:46.851Z,13.70
2017-09-16T09:36:40.898Z,13.90
2017-09-16T09:37:34.951Z,13.96
2017-09-16T09:38:34.897Z,14.70
2017-09-16T09:39:24.028Z,14.42
2017-09-16T09:40:11.909Z,14.32
2017-09-16T09:41:07.143Z,13.83
2017-09-16T09:42:01.159Z,14.11
2017-09-16T09:43:01.243Z,14.97
2017-09-16T09:43:55.267Z,15.96
2017-09-16T09:44:50.290Z,16.04
2017-09-16T09:45:45.420Z,15.28
2017-09-16T09:46:45.405Z,15.52
2017-09-16T09:47:40.366Z,15.61
2017-09-16T09:48:40.508Z,15.20
2017-09-16T09:49:35.431Z,14.97
2017-09-16T09:50:30.390Z,15.17
2017-09-16T09:51:24.425Z,14.29
2017-09-16T09:52:18.569Z,14.00
2017-09-16T09:53:07.752Z,14.44
2017-09-16T09:53:57.043Z,14.74
2017-09-16T09:54:50.611Z,14.33
2017-09-16T09:55:44.616Z,13.84
2017-09-16T09:56:39.761Z,14.43
2017-09-16T09:57:39.785Z,15.22
2017-09-16T09:58:34.819Z,14.61
2017-09-16T09:59:22.984Z,14.78
2017-09-16T10:00:17.070Z,13.92
2017-09-16T10:01:12.108Z,13.70
2017-09-16T10:02:12.272Z,13.43
2017-09-16T10:03:01.062Z,12.95
2017-09-16T10:03:55.398Z,13.50
2017-09-16T10:04:55.337Z,13.19
2017-09-16T10:05:49.376Z,13.50
2017-09-16T10:06:44.386Z,13.10
2017-09-16T10:07:38.464Z,13.14
2017-09-16T10:08:27.602Z,13.27
2017-09-16T10:09:21.565Z,13.22
2017-09-16T10:10:10.684Z,13.25
2017-09-16T10:11:04.619Z,14.93
2017-09-16T10:12:04.710Z,15.02
2017-09-16T10:12:53.751Z,15.50
2017-09-16T10:13:47.734Z,15.62
2017-09-16T10:14:42.825Z,16.06
2017-09-16T10:15:36.720Z,16.01
2017-09-16T10:16:25.757Z,15.86
2017-09-16T10:17:20.802Z,15.64
2017-09-16T10:18:20.850Z,15.54
2017-09-16T10:19:10.075Z,15.54
2017-09-16T10:20:09.921Z,15.44
2017-09-16T10:21:10.047Z,16.35
2017-09-16T10:22:04.135Z,16.44
2017-09-16T10:22:59.194Z,16.76
2017-09-16T10:23:54.467Z,17.10
2017-09-16T10:24:43.330Z,17.70
2017-09-16T10:25:43.457Z,18.72
2017-09-16T10:26:38.467Z,19.58
2017-09-16T10:27:32.351Z,20.10
2017-09-16T10:28:26.553Z,20.56
2017-09-16T10:29:15.729Z,20.18
2017-09-16T10:30:15.820Z,19.82
2017-09-16T10:31:04.790Z,19.48
2017-09-16T10:32:04.792Z,19.11
2017-09-16T10:33:04.846Z,19.06
2017-09-16T10:33:59.036Z,19.48
2017-09-16T10:34:46.935Z,19.46
2017-09-16T10:35:42.019Z,18.98
2017-09-16T10:36:42.998Z,18.52
2017-09-16T10:37:37.070Z,18.34
2017-09-16T10:38:32.045Z,18.84
2017-09-16T10:39:26.205Z,19.40
2017-09-16T10:40:15.268Z,20.10
2017-09-16T10:41:10.302Z,20.66
2017-09-16T10:42:04.385Z,20.84
2017-09-16T10:42:58.455Z,20.80
2017-09-16T10:43:52.415Z,20.18
2017-09-16T10:44:47.500Z,19.68
2017-09-16T10:45:42.579Z,19.23
2017-09-16T10:46:36.577Z,18.78
2017-09-16T10:47:25.640Z,18.66
2017-09-16T10:48:20.476Z,18.52
2017-09-16T10:49:15.794Z,18.78
2017-09-16T10:50:15.825Z,18.88
2017-09-16T10:51:09.864Z,19.11
2017-09-16T10:52:09.710Z,19.14
2017-09-16T10:53:03.979Z,18.80
2017-09-16T10:54:03.793Z,18.56
2017-09-16T10:54:57.826Z,18.04
2017-09-16T10:55:52.134Z,17.64
2017-09-16T10:56:41.201Z,17.48
2017-09-16T10:57:36.293Z,17.20
2017-09-16T10:58:30.305Z,17.12
2017-09-16T10:59:25.355Z,17.01
2017-09-16T11:00:25.438Z,16.97
2017-09-16T11:01:13.511Z,17.30
2017-09-16T11:02:07.409Z,17.58
2017-09-16T11:03:01.620Z,17.78
2017-09-16T11:03:50.471Z,17.73
2017-09-16T11:04:39.658Z,17.73
2017-09-16T11:05:28.748Z,17.85
2017-09-16T11:06:22.769Z,18.36
2017-09-16T11:07:17.891Z,18.86
2017-09-16T11:08:12.870Z,19.02
2017-09-16T11:09:06.940Z,18.82
2017-09-16T11:10:06.984Z,18.88
2017-09-16T11:11:02.038Z,19.62
2017-09-16T11:11:56.090Z,20.06
2017-09-16T11:12:56.139Z,20.56
2017-09-16T11:13:45.231Z,20.54
2017-09-16T11:14:33.011Z,20.15
2017-09-16T11:15:33.033Z,19.64
2017-09-16T11:16:27.091Z,18.90
2017-09-16T11:17:27.105Z,18.80
2017-09-16T11:18:21.446Z,18.41
2017-09-16T11:19:16.448Z,18.10
2017-09-16T11:20:11.631Z,17.79
2017-09-16T11:20:59.347Z,17.57
2017-09-16T11:21:53.648Z,17.41
2017-09-16T11:22:48.682Z,17.43
2017-09-16T11:23:48.672Z,17.46
2017-09-16T11:24:43.787Z,17.44
2017-09-16T11:25:37.577Z,17.60
2017-09-16T11:26:31.739Z,17.70
2017-09-16T11:27:32.800Z,17.52
2017-09-16T11:28:20.843Z,17.32
2017-09-16T11:29:10.033Z,17.12
2017-09-16T11:30:04.167Z,17.11
2017-09-16T11:31:04.171Z,17.02
2017-09-16T11:31:58.193Z,16.86
2017-09-16T11:32:53.169Z,16.75
2017-09-16T11:33:42.336Z,16.70
2017-09-16T11:34:36.282Z,16.67
2017-09-16T11:35:31.541Z,16.61
2017-09-16T11:36:25.447Z,16.35
2017-09-16T11:37:19.519Z,15.97
2017-09-16T11:38:13.587Z,15.72
2017-09-16T11:39:01.661Z,15.62
2017-09-16T11:39:49.597Z,15.44
2017-09-16T11:40:39.019Z,15.27
2017-09-16T11:41:33.697Z,15.14
2017-09-16T11:42:28.813Z,15.03
2017-09-16T11:43:29.838Z,14.75
2017-09-16T11:44:29.890Z,14.32
2017-09-16T11:45:24.880Z,13.92
2017-09-16T11:46:14.033Z,13.97
2017-09-16T11:47:20.010Z,13.52
2017-09-16T11:48:14.108Z,12.78
2017-09-16T11:49:09.076Z,12.73
2017-09-16T11:50:04.091Z,12.55
2017-09-16T11:50:59.238Z,12.64
2017-09-16T11:51:48.398Z,12.92
2017-09-16T11:52:42.207Z,13.22
2017-09-16T11:53:36.337Z,13.18
2017-09-16T11:54:30.277Z,13.06
2017-09-16T11:55:24.473Z,12.77
2017-09-16T11:56:18.484Z,12.98
2017-09-16T11:57:13.723Z,13.88
2017-09-16T11:58:08.369Z,13.64
2017-09-16T11:58:57.679Z,13.50